Main page
METAR-TAF:

METAR-TAF

Airports :

Rajmata Vijaya Raje Scindia Airport

Gwalior, India

latitude: 26-17-36N, longitude: 78-13-40E, elevation: 188 m

METAR: missing

Time: 02:57 (21:27 UTC)

Forecast

The report was made 11 hours and 57 minutes ago, at 09:30 UTC
Forecast valid from 28 at 12 UTC to 28 at 24 UTC
Wind 5 kt from the Northwest
Visibility: 5000 m
Becoming
from 28 at 13 UTC to 28 at 15 UTC
Visibility: 4000 m
mist
Becoming
from 28 at 20 UTC to 28 at 22 UTC
Wind 2 kt from variable directions
Visibility: 3000 m
mist

TAF: VIGR 280930Z 2812/2824 32005KT 5000 HAZE NSC BECMG 2813/2815 4000 BR NSC BECMG 2820/2822 VRB02KT 3000 BR NSC

Weather observations and forecasts of more than 4000 airports (METAR and TAF reports).

The available stations are represented by yellow and red dots on the map.

Hover mouse over dot to see the name of the station.

Then click to see weather observations and forecasts.

To change the map : click on the green buttons with a black cross to zoom in, on the green button with a dash to zoom out, or on the green arrows for adjacent maps.


METAR-TAF: